Terminal Aerodrome Forecast
Issued by NWS

Home | Current Version | Previous Version | Text Only | Print | Product List | Glossary On
Versions: 1 2 3 4 5 6 7 8 9 10 11 12 13 14 15 16
219
FTUS45 KTFX 230013 RRA
TAFBZN
TAF
KBZN 230013Z 2300/2324 VRB06KT P6SM VCSH SCT050 BKN120
      TEMPO 2300/2302 BKN050
     FM230300 15005KT P6SM SCT100
     FM231500 29007KT P6SM BKN060=

USA.gov is the U.S. government's official web portal to all federal, state and local government web resources and services.